createdAt,value
2022-12-01T00:02:11.481Z,102496.53
2022-12-01T00:04:38.786Z,102508.75
2022-12-01T00:07:07.510Z,102522.56
2022-12-01T00:09:36.162Z,102523.00
2022-12-01T00:12:03.629Z,102527.38
2022-12-01T00:14:30.988Z,102540.31
2022-12-01T00:16:58.247Z,102544.69
2022-12-01T00:19:25.869Z,102549.31
2022-12-01T00:21:53.190Z,102556.16
2022-12-01T00:24:21.744Z,102560.53
2022-12-01T00:26:49.289Z,102571.44
2022-12-01T00:29:16.666Z,102580.94
2022-12-01T00:31:43.943Z,102596.75
2022-12-01T00:34:21.510Z,102599.16
2022-12-01T00:36:48.809Z,102610.94
2022-12-01T00:39:16.006Z,102618.84
2022-12-01T00:41:44.677Z,102632.22
2022-12-01T00:44:11.832Z,102639.34
2022-12-01T00:46:39.136Z,102653.16
2022-12-01T00:49:06.552Z,102662.25
2022-12-01T00:51:34.002Z,102673.69
2022-12-01T00:54:01.294Z,102679.94
2022-12-01T00:56:28.532Z,102696.41
2022-12-01T00:58:57.070Z,102696.94
2022-12-01T01:01:24.572Z,102712.72
2022-12-01T01:03:51.894Z,102717.44
2022-12-01T01:06:19.293Z,102721.47
2022-12-01T01:08:46.756Z,102736.78
2022-12-01T01:11:14.175Z,102737.59
2022-12-01T01:13:41.438Z,102742.03
2022-12-01T01:16:14.796Z,102748.38
2022-12-01T01:18:42.171Z,102752.66
2022-12-01T01:21:13.437Z,102766.19
2022-12-01T01:23:41.278Z,102774.84
2022-12-01T01:26:11.854Z,102776.09
2022-12-01T01:28:39.210Z,102787.44
2022-12-01T01:31:07.681Z,102791.44
2022-12-01T01:33:37.186Z,102798.22
2022-12-01T01:36:05.325Z,102803.84
2022-12-01T01:38:33.077Z,102808.09
2022-12-01T01:41:01.134Z,102813.91
2022-12-01T01:43:43.930Z,102818.63
2022-12-01T01:46:13.330Z,102823.34
2022-12-01T01:48:45.495Z,102834.41
2022-12-01T01:51:14.507Z,102836.00
2022-12-01T01:53:43.681Z,102839.03
2022-12-01T01:56:11.102Z,102845.66
2022-12-01T01:58:39.653Z,102837.44
2022-12-01T02:01:07.356Z,102850.34
2022-12-01T02:03:37.026Z,102857.94
2022-12-01T02:06:07.728Z,102867.47
2022-12-01T02:08:36.156Z,102871.56
2022-12-01T02:11:24.309Z,102873.00
2022-12-01T02:14:04.756Z,102878.53
2022-12-01T02:16:41.145Z,102883.25
2022-12-01T02:19:41.867Z,102883.97
2022-12-01T02:22:20.692Z,102889.22
2022-12-01T02:25:00.944Z,102892.00
2022-12-01T02:27:48.129Z,102887.28
2022-12-01T02:30:17.730Z,102890.66
2022-12-01T02:32:56.100Z,102891.03
2022-12-01T02:35:32.226Z,102893.78
2022-12-01T02:38:09.840Z,102894.41
2022-12-01T02:40:43.433Z,102897.25
2022-12-01T02:43:17.740Z,102895.91
2022-12-01T02:45:50.223Z,102887.28
2022-12-01T02:48:23.516Z,102887.19
2022-12-01T02:50:52.625Z,102891.19
2022-12-01T02:53:20.092Z,102883.25
2022-12-01T02:55:49.332Z,102884.25
2022-12-01T02:58:16.572Z,102872.28
2022-12-01T03:01:12.165Z,102867.59
2022-12-01T03:04:00.637Z,102861.97
2022-12-01T03:06:39.939Z,102849.81
2022-12-01T03:09:15.539Z,102851.00
2022-12-01T03:11:50.147Z,102829.25
2022-12-01T03:14:28.832Z,102827.34
2022-12-01T03:16:59.722Z,102820.69
2022-12-01T03:19:35.844Z,102806.78
2022-12-01T03:22:10.316Z,102799.25
2022-12-01T03:24:40.889Z,102796.41
2022-12-01T03:27:10.491Z,102788.56
2022-12-01T03:29:42.197Z,102784.56
2022-12-01T03:32:15.776Z,102776.66
2022-12-01T03:34:50.571Z,102771.81
2022-12-01T03:37:23.671Z,102775.75
2022-12-01T03:39:59.986Z,102772.63
2022-12-01T03:42:33.518Z,102774.22
2022-12-01T03:45:06.730Z,102774.94
2022-12-01T03:47:34.931Z,102778.78
2022-12-01T03:50:04.820Z,102784.75
2022-12-01T03:52:43.648Z,102786.78
2022-12-01T03:55:15.991Z,102790.69
2022-12-01T03:57:47.046Z,102800.88
2022-12-01T04:00:15.637Z,102806.50
2022-12-01T04:02:43.958Z,102806.41
2022-12-01T04:05:13.239Z,102819.50
2022-12-01T04:07:40.745Z,102825.84
2022-12-01T04:10:08.890Z,102832.16
2022-12-01T04:12:36.165Z,102835.00
2022-12-01T04:15:06.109Z,102842.41
2022-12-01T04:17:33.796Z,102849.09
2022-12-01T04:20:01.227Z,102854.88
2022-12-01T04:22:29.871Z,102861.56
2022-12-01T04:24:57.325Z,102873.44
2022-12-01T04:27:24.661Z,102871.53
2022-12-01T04:29:52.062Z,102873.44
2022-12-01T04:32:19.585Z,102880.91
2022-12-01T04:34:46.854Z,102876.88
2022-12-01T04:37:14.214Z,102881.16
2022-12-01T04:39:42.841Z,102886.78
2022-12-01T04:42:10.829Z,102881.00
2022-12-01T04:44:38.344Z,102894.00
2022-12-01T04:47:06.664Z,102894.00
2022-12-01T04:49:34.132Z,102901.47
2022-12-01T04:52:01.311Z,102894.09
2022-12-01T04:54:28.606Z,102899.19
2022-12-01T04:56:57.163Z,102897.78
2022-12-01T04:59:25.673Z,102898.91
2022-12-01T05:01:52.919Z,102898.28
2022-12-01T05:04:20.219Z,102889.41
2022-12-01T05:06:47.472Z,102889.66
2022-12-01T05:09:17.776Z,102888.75
2022-12-01T05:11:45.335Z,102883.75
2022-12-01T05:14:13.940Z,102883.75
2022-12-01T05:16:41.242Z,102886.28
2022-12-01T05:19:09.010Z,102887.88
2022-12-01T05:21:36.247Z,102887.34
2022-12-01T05:24:03.959Z,102879.06
2022-12-01T05:26:31.246Z,102873.84
2022-12-01T05:28:58.646Z,102867.19
2022-12-01T05:31:27.397Z,102862.13
2022-12-01T05:33:54.664Z,102867.19
2022-12-01T05:36:22.056Z,102843.47
2022-12-01T05:38:49.301Z,102842.06
2022-12-01T05:41:16.790Z,102835.44
2022-12-01T05:43:44.021Z,102823.59
2022-12-01T05:46:12.361Z,102817.97
2022-12-01T05:48:42.146Z,102804.25
2022-12-01T05:51:10.385Z,102797.19
2022-12-01T05:53:37.609Z,102782.94
2022-12-01T05:56:05.807Z,102778.78
2022-12-01T05:58:33.251Z,102764.06
2022-12-01T06:01:01.151Z,102763.78
2022-12-01T06:03:28.398Z,102741.69
2022-12-01T06:05:57.013Z,102729.66
2022-12-01T06:08:24.206Z,102715.50
2022-12-01T06:10:51.517Z,102694.72
2022-12-01T06:13:18.698Z,102684.84
2022-12-01T06:15:45.925Z,102672.59
2022-12-01T06:18:13.152Z,102647.75
2022-12-01T06:20:40.372Z,102644.53
2022-12-01T06:23:08.908Z,102632.34
2022-12-01T06:25:36.201Z,102615.47
2022-12-01T06:28:03.638Z,102590.88
2022-12-01T06:30:30.917Z,102582.88
2022-12-01T06:32:58.144Z,102554.97
2022-12-01T06:35:25.462Z,102546.69
2022-12-01T06:37:53.381Z,102521.66
2022-12-01T06:40:22.080Z,102505.59
2022-12-01T06:42:49.338Z,102485.03
2022-12-01T06:45:16.805Z,102462.09
2022-12-01T06:47:44.045Z,102434.84
2022-12-01T06:50:11.790Z,102400.19
2022-12-01T06:52:38.966Z,102358.69
2022-12-01T06:55:06.818Z,102314.13
2022-12-01T06:57:35.664Z,102280.59
2022-12-01T07:00:04.580Z,102246.63
2022-12-01T07:02:32.202Z,102208.03
2022-12-01T07:04:59.413Z,102173.28
2022-12-01T07:07:26.766Z,102153.47
2022-12-01T07:09:54.063Z,102130.94
2022-12-01T07:12:21.217Z,102109.31
2022-12-01T07:14:49.792Z,102087.56
2022-12-01T07:17:16.982Z,102059.19
2022-12-01T07:19:44.232Z,102037.50
2022-12-01T07:22:11.380Z,102014.25
2022-12-01T07:24:38.696Z,101993.63
2022-12-01T07:27:05.846Z,101976.78
2022-12-01T07:29:33.256Z,101963.41
2022-12-01T07:32:01.929Z,101941.25
2022-12-01T07:34:29.236Z,101926.59
2022-12-01T07:36:56.483Z,101897.81
2022-12-01T07:39:23.845Z,101880.50
2022-12-01T07:41:51.023Z,101862.66
2022-12-01T07:44:18.295Z,101845.69
2022-12-01T07:46:45.562Z,101829.19
2022-12-01T07:49:14.225Z,101810.97
2022-12-01T07:51:41.478Z,101797.03
2022-12-01T07:54:10.738Z,101771.47
2022-12-01T07:56:37.896Z,101761.22
2022-12-01T07:59:05.348Z,101751.38
2022-12-01T08:01:32.614Z,101736.38
2022-12-01T08:04:00.127Z,101726.84
2022-12-01T08:06:28.707Z,101717.94
2022-12-01T08:08:56.245Z,101712.34
2022-12-01T08:11:25.267Z,101701.34
2022-12-01T08:13:53.663Z,101687.94
2022-12-01T08:16:23.094Z,101693.41
2022-12-01T08:18:50.644Z,101672.19
2022-12-01T08:21:20.051Z,101672.91
2022-12-01T08:23:51.665Z,101671.28
2022-12-01T08:26:20.220Z,101677.22
2022-12-01T08:28:47.556Z,101659.81
2022-12-01T08:31:17.213Z,101654.28
2022-12-01T08:33:44.868Z,101641.69
2022-12-01T08:36:12.261Z,101636.16
2022-12-01T08:38:39.509Z,101634.16
2022-12-01T08:41:09.657Z,101626.69
2022-12-01T08:46:24.258Z,101608.25
2022-12-01T08:48:51.503Z,101615.72
2022-12-01T08:51:19.198Z,101596.41
2022-12-01T08:53:48.965Z,101597.94
2022-12-01T08:56:20.337Z,101593.66
2022-12-01T08:58:48.101Z,101595.16
2022-12-01T09:01:16.783Z,101588.91
2022-12-01T09:03:44.503Z,101577.47
2022-12-01T09:06:14.045Z,101578.97
2022-12-01T09:08:41.309Z,101577.41
2022-12-01T09:11:11.900Z,101576.19
2022-12-01T09:13:41.533Z,101576.53
2022-12-01T09:16:12.449Z,101569.06
2022-12-01T09:18:40.168Z,101571.09
2022-12-01T09:21:12.176Z,101566.38
2022-12-01T09:23:40.081Z,101569.50
2022-12-01T09:26:13.217Z,101561.28
2022-12-01T09:28:42.083Z,101549.00
2022-12-01T09:31:11.803Z,101553.00
2022-12-01T09:33:39.372Z,101551.47
2022-12-01T09:36:08.681Z,101541.97
2022-12-01T09:38:37.743Z,101538.50
2022-12-01T09:41:07.669Z,101521.09
2022-12-01T09:43:40.599Z,101508.91
2022-12-01T09:46:15.745Z,101503.00
2022-12-01T09:48:45.604Z,101517.13
2022-12-01T09:51:15.202Z,101504.13
2022-12-01T09:53:44.036Z,101494.28
2022-12-01T09:56:21.146Z,101490.34
2022-12-01T09:58:51.949Z,101484.00
2022-12-01T10:01:27.227Z,101484.41
2022-12-01T10:03:57.674Z,101479.69
2022-12-01T10:06:33.179Z,101467.84
2022-12-01T10:09:12.933Z,101461.53
2022-12-01T10:11:43.875Z,101452.88
2022-12-01T10:14:19.658Z,101451.69
2022-12-01T10:16:59.206Z,101453.59
2022-12-01T10:19:32.433Z,101454.44
2022-12-01T10:22:19.409Z,101456.69
2022-12-01T10:24:54.260Z,101453.56
2022-12-01T10:27:36.927Z,101459.09
2022-12-01T10:30:09.152Z,101448.41
2022-12-01T10:32:45.777Z,101439.78
2022-12-01T10:35:21.775Z,101444.09
2022-12-01T10:37:54.051Z,101429.56
2022-12-01T10:40:21.515Z,101427.22
2022-12-01T10:42:50.075Z,101317.47
2022-12-01T10:45:22.058Z,101320.63
2022-12-01T10:48:14.556Z,101317.09
2022-12-01T10:50:43.205Z,101297.75
2022-12-01T10:53:26.849Z,102142.06
2022-12-01T10:56:04.138Z,102140.84
2022-12-01T10:58:33.611Z,102150.84
2022-12-01T11:01:05.734Z,102151.38
2022-12-01T11:03:36.146Z,102153.44
2022-12-01T11:06:05.981Z,102151.41
2022-12-01T11:08:39.221Z,102157.31
2022-12-01T11:11:06.881Z,102154.72
2022-12-01T11:13:36.095Z,102159.78
2022-12-01T11:16:06.259Z,102176.16
2022-12-01T11:18:36.828Z,102204.38
2022-12-01T11:21:08.697Z,102233.56
2022-12-01T11:23:38.083Z,102268.72
2022-12-01T11:26:14.126Z,102306.59
2022-12-01T11:28:50.556Z,102439.31
2022-12-01T11:31:19.376Z,102492.22
2022-12-01T11:33:51.931Z,102493.47
2022-12-01T11:36:26.457Z,102489.94
2022-12-01T11:39:00.134Z,102500.50
2022-12-01T11:41:33.045Z,102630.88
2022-12-01T11:44:03.926Z,102753.50
2022-12-01T11:46:35.257Z,102744.91
2022-12-01T11:49:04.123Z,102749.16
2022-12-01T11:51:33.116Z,102743.91
2022-12-01T11:54:14.061Z,102741.19
2022-12-01T11:56:42.899Z,102740.34
2022-12-01T11:59:13.372Z,102734.44
2022-12-01T12:02:01.315Z,102734.72
2022-12-01T12:04:48.305Z,102738.28
2022-12-01T12:07:24.180Z,102732.75
2022-12-01T12:10:02.894Z,102729.13
2022-12-01T12:12:44.875Z,102729.94
2022-12-01T12:15:25.156Z,102730.75
2022-12-01T12:18:21.097Z,102725.59
2022-12-01T12:21:02.200Z,102720.34
2022-12-01T12:23:45.426Z,102721.56
2022-12-01T12:26:19.603Z,102720.38
2022-12-01T12:29:01.376Z,102711.06
2022-12-01T12:31:39.113Z,102712.66
2022-12-01T12:34:19.751Z,102709.16
2022-12-01T12:36:59.055Z,102698.19
2022-12-01T12:39:50.028Z,102699.56
2022-12-01T12:42:27.194Z,102695.03
2022-12-01T12:45:03.124Z,102700.66
2022-12-01T12:47:41.655Z,102695.84
2022-12-01T12:50:22.793Z,102692.66
2022-12-01T12:52:56.673Z,102695.00
2022-12-01T12:55:28.418Z,102698.31
2022-12-01T12:58:00.641Z,102692.97
2022-12-01T13:00:29.263Z,102697.53
2022-12-01T13:02:59.650Z,102703.59
2022-12-01T13:05:33.469Z,102703.03
2022-12-01T13:08:07.492Z,102699.09
2022-12-01T13:10:40.775Z,102705.78
2022-12-01T13:13:20.568Z,102705.38
2022-12-01T13:15:50.358Z,102711.78
2022-12-01T13:18:27.656Z,102702.50
2022-12-01T13:20:57.647Z,102702.41
2022-12-01T13:23:26.663Z,102709.13
2022-12-01T13:25:57.437Z,102702.69
2022-12-01T13:28:28.662Z,102707.34
2022-12-01T13:31:01.641Z,102710.13
2022-12-01T13:33:29.891Z,102711.19
2022-12-01T13:36:23.039Z,102716.63
2022-12-01T13:38:56.853Z,102718.50
2022-12-01T13:41:28.352Z,102718.34
2022-12-01T13:44:01.501Z,102714.94
2022-12-01T13:46:31.621Z,102711.81
2022-12-01T13:49:19.809Z,102716.72
2022-12-01T13:52:27.905Z,102722.41
2022-12-01T13:55:27.830Z,102716.44
2022-12-01T13:58:25.085Z,102722.59
2022-12-01T14:00:52.701Z,102727.22
2022-12-01T14:03:38.513Z,102732.06
2022-12-01T14:06:09.859Z,102732.75
2022-12-01T14:08:44.767Z,102741.03
2022-12-01T14:11:21.093Z,102739.00
2022-12-01T14:13:53.428Z,102734.91
2022-12-01T14:16:21.972Z,102739.00
2022-12-01T14:18:51.835Z,102727.88
2022-12-01T14:21:43.847Z,102725.00
2022-12-01T14:24:22.679Z,102726.19
2022-12-01T14:26:51.990Z,102724.56
2022-12-01T14:29:28.889Z,102725.56
2022-12-01T14:32:23.172Z,102716.19
2022-12-01T14:35:08.367Z,102716.72
2022-12-01T14:37:40.425Z,102719.94
2022-12-01T14:40:15.660Z,102715.84
2022-12-01T14:42:48.722Z,102721.19
2022-12-01T14:45:20.289Z,102713.84
2022-12-01T14:47:54.445Z,102721.94
2022-12-01T14:50:25.296Z,102720.81
2022-12-01T14:52:57.382Z,102716.25
2022-12-01T14:55:28.677Z,102720.91
2022-12-01T14:58:04.395Z,102716.88
2022-12-01T15:00:34.953Z,102713.66
2022-12-01T15:03:07.354Z,102715.00
2022-12-01T15:05:38.948Z,102718.47
2022-12-01T15:08:40.139Z,102715.59
2022-12-01T15:11:10.683Z,102719.69
2022-12-01T15:13:47.481Z,102718.56
2022-12-01T15:16:17.666Z,102733.84
2022-12-01T15:18:45.675Z,102720.59
2022-12-01T15:21:17.284Z,102726.03
2022-12-01T15:23:56.142Z,102719.69
2022-12-01T15:26:25.151Z,102722.81
2022-12-01T15:29:16.083Z,102727.63
2022-12-01T15:31:46.413Z,102729.69
2022-12-01T15:34:16.221Z,102738.66
2022-12-01T15:36:43.957Z,102743.72
2022-12-01T15:39:15.660Z,102746.78
2022-12-01T15:41:45.404Z,102745.91
2022-12-01T15:44:25.670Z,102747.03
2022-12-01T15:46:52.993Z,102756.94
2022-12-01T15:49:24.242Z,102749.03
2022-12-01T15:51:53.778Z,102753.63
2022-12-01T15:54:24.229Z,102756.19
2022-12-01T15:56:54.053Z,102755.13
2022-12-01T15:59:30.299Z,102761.47
2022-12-01T16:01:58.304Z,102763.88
2022-12-01T16:04:28.206Z,102762.28
2022-12-01T16:06:58.646Z,102768.25
2022-12-01T16:09:29.901Z,102766.63
2022-12-01T16:12:05.174Z,102778.88
2022-12-01T16:14:34.531Z,102778.19
2022-12-01T16:17:02.111Z,102775.31
2022-12-01T16:19:30.632Z,102779.13
2022-12-01T16:22:03.263Z,102779.81
2022-12-01T16:24:33.243Z,102775.22
2022-12-01T16:27:04.150Z,102775.66
2022-12-01T16:29:45.364Z,102775.72
2022-12-01T16:32:21.022Z,102782.63
2022-12-01T16:34:50.279Z,102788.84
2022-12-01T16:37:17.485Z,102789.28
2022-12-01T16:39:44.756Z,102786.69
2022-12-01T16:42:13.623Z,102786.91
2022-12-01T16:44:43.523Z,102799.91
2022-12-01T16:47:14.117Z,102798.31
2022-12-01T16:49:41.424Z,102813.59
2022-12-01T16:52:36.560Z,102815.75
2022-12-01T16:54:56.265Z,102819.69
2022-12-01T16:57:23.409Z,102826.22
2022-12-01T16:59:51.985Z,102828.44
2022-12-01T17:02:19.284Z,102832.09
2022-12-01T17:04:46.556Z,102840.59
2022-12-01T17:07:13.731Z,102843.69
2022-12-01T17:09:40.956Z,102845.66
2022-12-01T17:12:08.285Z,102847.28
2022-12-01T17:14:35.961Z,102844.06
2022-12-01T17:17:05.736Z,102848.28
2022-12-01T17:19:32.899Z,102857.16
2022-12-01T17:22:00.089Z,102854.72
2022-12-01T17:24:27.397Z,102851.41
2022-12-01T17:26:54.537Z,102862.06
2022-12-01T17:29:21.738Z,102861.06
2022-12-01T17:31:48.929Z,102860.59
2022-12-01T17:34:17.511Z,102862.66
2022-12-01T17:36:44.701Z,102864.16
2022-12-01T17:39:11.914Z,102858.78
2022-12-01T17:41:39.104Z,102862.66
2022-12-01T17:44:06.361Z,102860.81
2022-12-01T17:46:33.675Z,102859.53
2022-12-01T17:49:01.278Z,102872.97
2022-12-01T17:51:29.886Z,102871.63
2022-12-01T17:53:57.185Z,102865.38
2022-12-01T17:56:24.414Z,102875.84
2022-12-01T17:58:51.646Z,102879.28
2022-12-01T18:01:23.079Z,102885.81
2022-12-01T18:03:52.667Z,102873.06
2022-12-01T18:06:20.322Z,102881.44
2022-12-01T18:08:48.987Z,102875.13
2022-12-01T18:11:16.795Z,102872.75
2022-12-01T18:13:45.960Z,102864.94
2022-12-01T18:16:15.557Z,102875.97
2022-12-01T18:18:43.305Z,102869.88
2022-12-01T18:21:12.411Z,102862.16
2022-12-01T18:23:40.085Z,102869.06
2022-12-01T18:26:15.383Z,102865.38
2022-12-01T18:28:43.809Z,102869.72
2022-12-01T18:31:14.481Z,102872.72
2022-12-01T18:33:43.953Z,102873.88
2022-12-01T18:36:13.996Z,102869.31
2022-12-01T18:38:41.610Z,102877.34
2022-12-01T18:41:10.501Z,102875.06
2022-12-01T18:43:37.811Z,102870.66
2022-12-01T18:46:06.150Z,102882.00
2022-12-01T18:48:34.286Z,102878.91
2022-12-01T18:51:02.270Z,102876.28
2022-12-01T18:53:30.046Z,102874.41
2022-12-01T18:56:00.666Z,102864.66
2022-12-01T18:58:29.338Z,102859.97
2022-12-01T19:00:56.715Z,102858.44
2022-12-01T19:03:24.241Z,102858.22
2022-12-01T19:05:51.509Z,102848.94
2022-12-01T19:08:19.877Z,102859.03
2022-12-01T19:10:58.034Z,102854.31
2022-12-01T19:13:25.273Z,102847.41
2022-12-01T19:15:53.922Z,102846.75
2022-12-01T19:18:21.232Z,102839.16
2022-12-01T19:20:48.658Z,102834.81
2022-12-01T19:23:16.034Z,102836.66
2022-12-01T19:25:43.729Z,102829.44
2022-12-01T19:28:11.370Z,102830.91
2022-12-01T19:30:38.748Z,102828.16
2022-12-01T19:33:08.159Z,102828.63
2022-12-01T19:35:35.408Z,102822.97
2022-12-01T19:38:02.891Z,102821.16
2022-12-01T19:40:30.743Z,102813.44
2022-12-01T19:42:57.976Z,102814.47
2022-12-01T19:45:25.137Z,102821.03
2022-12-01T19:47:52.463Z,102817.22
2022-12-01T19:50:21.046Z,102820.78
2022-12-01T19:52:48.335Z,102819.19
2022-12-01T19:55:15.641Z,102819.66
2022-12-01T19:57:42.923Z,102817.56
2022-12-01T20:00:11.569Z,102812.06
2022-12-01T20:02:42.033Z,102812.53
2022-12-01T20:05:09.739Z,102816.19
2022-12-01T20:07:38.388Z,102814.44
2022-12-01T20:10:06.295Z,102807.47
2022-12-01T20:12:34.302Z,102809.66
2022-12-01T20:15:01.808Z,102808.84
2022-12-01T20:17:29.009Z,102810.25
2022-12-01T20:19:56.288Z,102818.75
2022-12-01T20:22:23.434Z,102810.94
2022-12-01T20:24:52.323Z,102812.41
2022-12-01T20:27:19.873Z,102813.78
2022-12-01T20:29:47.135Z,102813.22
2022-12-01T20:32:17.122Z,102809.56
2022-12-01T20:34:46.586Z,102811.63
2022-12-01T20:37:14.041Z,102809.69
2022-12-01T20:39:41.523Z,102813.47
2022-12-01T20:42:10.801Z,102804.03
2022-12-01T20:44:38.180Z,102804.41
2022-12-01T20:47:05.393Z,102804.75
2022-12-01T20:49:32.724Z,102807.59
2022-12-01T20:51:59.940Z,102803.69
2022-12-01T20:54:29.247Z,102808.84
2022-12-01T20:56:57.336Z,102805.56
2022-12-01T20:59:26.732Z,102807.03
2022-12-01T21:01:54.319Z,102804.41
2022-12-01T21:04:21.634Z,102808.88
2022-12-01T21:06:48.885Z,102805.91
2022-12-01T21:09:16.443Z,102808.66
2022-12-01T21:11:46.488Z,102811.41
2022-12-01T21:14:17.993Z,102803.03
2022-12-01T21:16:48.008Z,102805.44
2022-12-01T21:19:20.830Z,102811.84
2022-12-01T21:21:48.252Z,102809.69
2022-12-01T21:24:17.240Z,102817.47
2022-12-01T21:26:48.021Z,102812.06
2022-12-01T21:29:19.589Z,102818.63
2022-12-01T21:31:50.900Z,102816.31
2022-12-01T21:34:21.279Z,102813.09
2022-12-01T21:36:50.439Z,102817.03
2022-12-01T21:39:19.592Z,102820.56
2022-12-01T21:41:49.103Z,102816.69
2022-12-01T21:44:19.348Z,102818.75
2022-12-01T21:46:52.915Z,102820.56
2022-12-01T21:49:21.971Z,102820.09
2022-12-01T21:51:52.653Z,102823.31
2022-12-01T21:54:21.649Z,102825.19
2022-12-01T21:56:49.665Z,102826.31
2022-12-01T21:59:20.392Z,102833.63
2022-12-01T22:01:53.730Z,102837.78
2022-12-01T22:04:23.209Z,102836.19
2022-12-01T22:06:52.610Z,102838.72
2022-12-01T22:09:24.180Z,102835.56
2022-12-01T22:11:54.057Z,102831.78
2022-12-01T22:14:23.443Z,102842.00
2022-12-01T22:16:56.045Z,102842.13
2022-12-01T22:19:28.247Z,102828.81
2022-12-01T22:22:00.788Z,102831.44
2022-12-01T22:24:34.263Z,102834.75
2022-12-01T22:27:26.283Z,102822.41
2022-12-01T22:29:57.668Z,102827.56
2022-12-01T22:32:38.111Z,102821.03
2022-12-01T22:35:26.868Z,102829.06
2022-12-01T22:37:59.148Z,102824.25
2022-12-01T22:40:36.476Z,102817.78
2022-12-01T22:43:21.255Z,102825.16
2022-12-01T22:45:52.708Z,102827.91
2022-12-01T22:48:31.618Z,102833.16
2022-12-01T22:51:08.477Z,102824.00
2022-12-01T22:53:35.917Z,102818.38
2022-12-01T22:56:20.365Z,102822.69
2022-12-01T22:58:47.741Z,102826.38
2022-12-01T23:01:22.463Z,102820.44
2022-12-01T23:03:54.655Z,102831.53
2022-12-01T23:06:55.781Z,102834.06
2022-12-01T23:09:26.862Z,102825.47
2022-12-01T23:11:58.345Z,102823.06
2022-12-01T23:14:25.709Z,102822.41
2022-12-01T23:17:04.269Z,102822.06
2022-12-01T23:19:34.032Z,102830.06
2022-12-01T23:22:01.931Z,102813.66
2022-12-01T23:24:33.759Z,102813.09
2022-12-01T23:27:01.535Z,102819.41
2022-12-01T23:29:30.108Z,102814.44
2022-12-01T23:31:57.809Z,102811.91
2022-12-01T23:34:25.044Z,102810.44
2022-12-01T23:36:53.954Z,102810.56
2022-12-01T23:39:29.802Z,102805.88
2022-12-01T23:41:57.557Z,102810.56
2022-12-01T23:44:35.418Z,102810.56
2022-12-01T23:47:03.478Z,102803.53
2022-12-01T23:49:34.647Z,102805.63
2022-12-01T23:52:03.729Z,102800.25
2022-12-01T23:54:33.094Z,102801.94
2022-12-01T23:57:02.626Z,102802.06
2022-12-01T23:59:31.528Z,102802.88
